sensor_id;sensor_type;location;lat;lon;timestamp;P1;durP1;ratioP1;P2;durP2;ratioP2
40322;SDS011;26030;51.164;17.100;2024-03-22T00:01:29;5.90;;;5.00;;
40322;SDS011;26030;51.164;17.100;2024-03-22T00:06:33;7.30;;;5.00;;
40322;SDS011;26030;51.164;17.100;2024-03-22T00:11:40;5.20;;;4.20;;
40322;SDS011;26030;51.164;17.100;2024-03-22T00:16:44;4.90;;;4.50;;
40322;SDS011;26030;51.164;17.100;2024-03-22T00:21:47;6.30;;;4.40;;
40322;SDS011;26030;51.164;17.100;2024-03-22T00:26:51;5.60;;;4.40;;
40322;SDS011;26030;51.164;17.100;2024-03-22T00:31:54;5.50;;;4.20;;
40322;SDS011;26030;51.164;17.100;2024-03-22T00:36:58;4.40;;;3.90;;
40322;SDS011;26030;51.164;17.100;2024-03-22T00:42:02;5.80;;;4.60;;
40322;SDS011;26030;51.164;17.100;2024-03-22T00:47:05;4.10;;;3.70;;
40322;SDS011;26030;51.164;17.100;2024-03-22T00:52:12;4.70;;;4.10;;
40322;SDS011;26030;51.164;17.100;2024-03-22T00:57:15;6.30;;;4.20;;
40322;SDS011;26030;51.164;17.100;2024-03-22T01:02:19;4.30;;;3.90;;
40322;SDS011;26030;51.164;17.100;2024-03-22T01:07:23;6.10;;;3.80;;
40322;SDS011;26030;51.164;17.100;2024-03-22T01:12:26;4.50;;;3.60;;
40322;SDS011;26030;51.164;17.100;2024-03-22T01:17:30;6.10;;;3.90;;
40322;SDS011;26030;51.164;17.100;2024-03-22T01:22:34;4.20;;;3.70;;
40322;SDS011;26030;51.164;17.100;2024-03-22T01:27:40;4.20;;;3.80;;
40322;SDS011;26030;51.164;17.100;2024-03-22T01:32:44;4.20;;;3.80;;
40322;SDS011;26030;51.164;17.100;2024-03-22T01:37:48;4.90;;;3.50;;
40322;SDS011;26030;51.164;17.100;2024-03-22T01:42:53;8.10;;;3.50;;
40322;SDS011;26030;51.164;17.100;2024-03-22T01:47:58;4.20;;;3.80;;
40322;SDS011;26030;51.164;17.100;2024-03-22T01:53:03;4.10;;;3.60;;
40322;SDS011;26030;51.164;17.100;2024-03-22T01:58:06;5.30;;;4.00;;
40322;SDS011;26030;51.164;17.100;2024-03-22T02:03:10;4.40;;;3.50;;
40322;SDS011;26030;51.164;17.100;2024-03-22T02:08:14;4.30;;;3.30;;
40322;SDS011;26030;51.164;17.100;2024-03-22T02:13:18;3.60;;;3.20;;
40322;SDS011;26030;51.164;17.100;2024-03-22T02:18:22;3.80;;;3.40;;
40322;SDS011;26030;51.164;17.100;2024-03-22T02:23:35;4.80;;;3.40;;
40322;SDS011;26030;51.164;17.100;2024-03-22T02:28:38;3.00;;;2.70;;
40322;SDS011;26030;51.164;17.100;2024-03-22T02:33:42;3.30;;;3.10;;
40322;SDS011;26030;51.164;17.100;2024-03-22T02:38:49;3.90;;;3.30;;
40322;SDS011;26030;51.164;17.100;2024-03-22T02:43:53;3.50;;;3.10;;
40322;SDS011;26030;51.164;17.100;2024-03-22T02:48:57;3.80;;;3.50;;
40322;SDS011;26030;51.164;17.100;2024-03-22T02:54:01;3.30;;;3.00;;
40322;SDS011;26030;51.164;17.100;2024-03-22T02:59:05;3.60;;;3.00;;
40322;SDS011;26030;51.164;17.100;2024-03-22T03:04:17;3.10;;;2.80;;
40322;SDS011;26030;51.164;17.100;2024-03-22T03:09:21;3.60;;;3.10;;
40322;SDS011;26030;51.164;17.100;2024-03-22T03:14:25;3.60;;;3.20;;
40322;SDS011;26030;51.164;17.100;2024-03-22T03:19:38;3.00;;;2.80;;
40322;SDS011;26030;51.164;17.100;2024-03-22T03:24:43;3.30;;;3.00;;
40322;SDS011;26030;51.164;17.100;2024-03-22T03:29:49;3.40;;;2.50;;
40322;SDS011;26030;51.164;17.100;2024-03-22T03:34:54;3.00;;;2.80;;
40322;SDS011;26030;51.164;17.100;2024-03-22T03:40:00;3.00;;;2.70;;
40322;SDS011;26030;51.164;17.100;2024-03-22T03:45:04;3.20;;;2.40;;
40322;SDS011;26030;51.164;17.100;2024-03-22T03:50:08;3.10;;;2.80;;
40322;SDS011;26030;51.164;17.100;2024-03-22T03:55:12;3.50;;;2.70;;
40322;SDS011;26030;51.164;17.100;2024-03-22T04:00:16;2.80;;;2.50;;
40322;SDS011;26030;51.164;17.100;2024-03-22T04:05:19;3.10;;;2.60;;
40322;SDS011;26030;51.164;17.100;2024-03-22T04:10:24;3.00;;;2.40;;
40322;SDS011;26030;51.164;17.100;2024-03-22T04:15:34;2.70;;;2.50;;
40322;SDS011;26030;51.164;17.100;2024-03-22T04:20:38;2.90;;;2.50;;
40322;SDS011;26030;51.164;17.100;2024-03-22T04:25:41;3.00;;;2.70;;
40322;SDS011;26030;51.164;17.100;2024-03-22T04:31:02;2.90;;;2.60;;
40322;SDS011;26030;51.164;17.100;2024-03-22T04:41:10;2.50;;;2.30;;
40322;SDS011;26030;51.164;17.100;2024-03-22T04:46:13;2.90;;;2.50;;
40322;SDS011;26030;51.164;17.100;2024-03-22T04:51:20;3.10;;;2.40;;
40322;SDS011;26030;51.164;17.100;2024-03-22T04:56:23;2.70;;;2.50;;
40322;SDS011;26030;51.164;17.100;2024-03-22T05:01:27;2.40;;;2.20;;
40322;SDS011;26030;51.164;17.100;2024-03-22T05:06:31;2.70;;;2.50;;
40322;SDS011;26030;51.164;17.100;2024-03-22T05:11:35;3.10;;;2.60;;
40322;SDS011;26030;51.164;17.100;2024-03-22T05:16:39;2.20;;;2.00;;
40322;SDS011;26030;51.164;17.100;2024-03-22T05:21:42;3.10;;;2.50;;
40322;SDS011;26030;51.164;17.100;2024-03-22T05:26:46;2.60;;;2.10;;
40322;SDS011;26030;51.164;17.100;2024-03-22T05:31:50;2.70;;;2.20;;
40322;SDS011;26030;51.164;17.100;2024-03-22T05:36:55;2.20;;;2.10;;
40322;SDS011;26030;51.164;17.100;2024-03-22T05:41:59;2.50;;;2.30;;
40322;SDS011;26030;51.164;17.100;2024-03-22T05:47:03;2.40;;;2.20;;
40322;SDS011;26030;51.164;17.100;2024-03-22T05:52:07;2.30;;;2.10;;
40322;SDS011;26030;51.164;17.100;2024-03-22T05:57:11;2.40;;;2.30;;
40322;SDS011;26030;51.164;17.100;2024-03-22T06:02:15;2.60;;;2.40;;
40322;SDS011;26030;51.164;17.100;2024-03-22T06:07:19;2.30;;;2.10;;
40322;SDS011;26030;51.164;17.100;2024-03-22T06:12:23;3.30;;;2.00;;
40322;SDS011;26030;51.164;17.100;2024-03-22T06:17:26;2.00;;;1.90;;
40322;SDS011;26030;51.164;17.100;2024-03-22T06:22:30;2.40;;;2.20;;
40322;SDS011;26030;51.164;17.100;2024-03-22T06:27:34;1.90;;;1.80;;
40322;SDS011;26030;51.164;17.100;2024-03-22T06:32:38;4.20;;;2.30;;
40322;SDS011;26030;51.164;17.100;2024-03-22T06:37:41;2.50;;;2.20;;
40322;SDS011;26030;51.164;17.100;2024-03-22T06:42:45;4.00;;;2.20;;
40322;SDS011;26030;51.164;17.100;2024-03-22T06:47:49;2.90;;;2.50;;
40322;SDS011;26030;51.164;17.100;2024-03-22T06:52:54;4.40;;;2.50;;
40322;SDS011;26030;51.164;17.100;2024-03-22T06:57:57;2.90;;;2.40;;
40322;SDS011;26030;51.164;17.100;2024-03-22T07:03:05;2.20;;;2.00;;
40322;SDS011;26030;51.164;17.100;2024-03-22T07:08:08;4.30;;;2.30;;
40322;SDS011;26030;51.164;17.100;2024-03-22T07:13:12;5.10;;;2.20;;
40322;SDS011;26030;51.164;17.100;2024-03-22T07:18:23;2.60;;;2.40;;
40322;SDS011;26030;51.164;17.100;2024-03-22T07:23:27;4.30;;;3.00;;
40322;SDS011;26030;51.164;17.100;2024-03-22T07:28:52;2.30;;;2.10;;
40322;SDS011;26030;51.164;17.100;2024-03-22T07:33:56;4.40;;;2.20;;
40322;SDS011;26030;51.164;17.100;2024-03-22T07:38:59;4.60;;;2.10;;
40322;SDS011;26030;51.164;17.100;2024-03-22T07:44:04;12.10;;;2.90;;
40322;SDS011;26030;51.164;17.100;2024-03-22T07:49:08;5.80;;;2.80;;
40322;SDS011;26030;51.164;17.100;2024-03-22T07:54:12;7.60;;;2.30;;
40322;SDS011;26030;51.164;17.100;2024-03-22T07:59:15;3.40;;;3.10;;
40322;SDS011;26030;51.164;17.100;2024-03-22T08:04:19;3.70;;;2.60;;
40322;SDS011;26030;51.164;17.100;2024-03-22T08:09:26;3.50;;;2.40;;
40322;SDS011;26030;51.164;17.100;2024-03-22T08:14:29;2.80;;;2.60;;
40322;SDS011;26030;51.164;17.100;2024-03-22T08:19:33;3.00;;;2.40;;
40322;SDS011;26030;51.164;17.100;2024-03-22T08:24:37;2.80;;;2.50;;
40322;SDS011;26030;51.164;17.100;2024-03-22T08:29:41;2.90;;;2.50;;
40322;SDS011;26030;51.164;17.100;2024-03-22T08:34:46;2.80;;;2.50;;
40322;SDS011;26030;51.164;17.100;2024-03-22T08:39:50;2.60;;;2.30;;
40322;SDS011;26030;51.164;17.100;2024-03-22T08:44:53;3.90;;;2.70;;
40322;SDS011;26030;51.164;17.100;2024-03-22T08:49:57;2.80;;;2.50;;
40322;SDS011;26030;51.164;17.100;2024-03-22T08:55:01;2.70;;;2.20;;
40322;SDS011;26030;51.164;17.100;2024-03-22T09:00:06;7.10;;;2.70;;
40322;SDS011;26030;51.164;17.100;2024-03-22T09:05:11;3.30;;;2.50;;
40322;SDS011;26030;51.164;17.100;2024-03-22T09:10:15;2.40;;;2.20;;
40322;SDS011;26030;51.164;17.100;2024-03-22T09:15:19;2.60;;;2.40;;
40322;SDS011;26030;51.164;17.100;2024-03-22T09:20:22;3.10;;;2.30;;
40322;SDS011;26030;51.164;17.100;2024-03-22T09:25:27;2.80;;;2.60;;
40322;SDS011;26030;51.164;17.100;2024-03-22T09:30:31;3.00;;;2.80;;
40322;SDS011;26030;51.164;17.100;2024-03-22T09:35:45;3.20;;;2.90;;
40322;SDS011;26030;51.164;17.100;2024-03-22T09:40:48;3.00;;;2.80;;
40322;SDS011;26030;51.164;17.100;2024-03-22T09:45:54;3.60;;;3.30;;
40322;SDS011;26030;51.164;17.100;2024-03-22T09:50:57;3.30;;;3.10;;
40322;SDS011;26030;51.164;17.100;2024-03-22T09:56:02;3.00;;;2.80;;
40322;SDS011;26030;51.164;17.100;2024-03-22T10:01:05;4.20;;;3.10;;
40322;SDS011;26030;51.164;17.100;2024-03-22T10:06:09;3.10;;;2.90;;
40322;SDS011;26030;51.164;17.100;2024-03-22T10:11:13;3.70;;;3.10;;
40322;SDS011;26030;51.164;17.100;2024-03-22T10:16:16;3.30;;;3.10;;
40322;SDS011;26030;51.164;17.100;2024-03-22T10:21:21;3.10;;;2.80;;
40322;SDS011;26030;51.164;17.100;2024-03-22T10:26:25;3.40;;;3.10;;
40322;SDS011;26030;51.164;17.100;2024-03-22T10:31:28;2.90;;;2.70;;
40322;SDS011;26030;51.164;17.100;2024-03-22T10:36:33;2.80;;;2.60;;
40322;SDS011;26030;51.164;17.100;2024-03-22T10:41:37;3.10;;;2.90;;
40322;SDS011;26030;51.164;17.100;2024-03-22T10:46:46;3.20;;;3.00;;
40322;SDS011;26030;51.164;17.100;2024-03-22T10:51:58;2.80;;;2.60;;
40322;SDS011;26030;51.164;17.100;2024-03-22T10:57:05;3.20;;;3.00;;
40322;SDS011;26030;51.164;17.100;2024-03-22T11:02:11;3.40;;;3.20;;
40322;SDS011;26030;51.164;17.100;2024-03-22T11:07:21;3.50;;;3.10;;
40322;SDS011;26030;51.164;17.100;2024-03-22T11:12:25;2.90;;;2.70;;
40322;SDS011;26030;51.164;17.100;2024-03-22T11:17:29;2.90;;;2.70;;
40322;SDS011;26030;51.164;17.100;2024-03-22T11:22:34;2.80;;;2.50;;
40322;SDS011;26030;51.164;17.100;2024-03-22T11:27:39;2.80;;;2.60;;
40322;SDS011;26030;51.164;17.100;2024-03-22T11:32:43;3.10;;;2.80;;
40322;SDS011;26030;51.164;17.100;2024-03-22T11:37:50;3.50;;;3.20;;
40322;SDS011;26030;51.164;17.100;2024-03-22T11:42:55;3.50;;;3.30;;
40322;SDS011;26030;51.164;17.100;2024-03-22T11:48:02;3.50;;;3.20;;
40322;SDS011;26030;51.164;17.100;2024-03-22T11:53:07;5.20;;;3.60;;
40322;SDS011;26030;51.164;17.100;2024-03-22T11:58:10;3.60;;;3.30;;
40322;SDS011;26030;51.164;17.100;2024-03-22T12:03:14;3.50;;;3.30;;
40322;SDS011;26030;51.164;17.100;2024-03-22T12:08:18;3.40;;;3.20;;
40322;SDS011;26030;51.164;17.100;2024-03-22T12:13:21;3.50;;;3.20;;
40322;SDS011;26030;51.164;17.100;2024-03-22T12:18:25;3.50;;;3.20;;
40322;SDS011;26030;51.164;17.100;2024-03-22T12:23:38;4.90;;;3.80;;
40322;SDS011;26030;51.164;17.100;2024-03-22T12:28:42;3.90;;;3.60;;
40322;SDS011;26030;51.164;17.100;2024-03-22T12:33:45;4.60;;;4.20;;
40322;SDS011;26030;51.164;17.100;2024-03-22T12:38:49;4.00;;;3.70;;
40322;SDS011;26030;51.164;17.100;2024-03-22T12:43:53;6.00;;;3.50;;
40322;SDS011;26030;51.164;17.100;2024-03-22T12:49:01;4.10;;;3.80;;
40322;SDS011;26030;51.164;17.100;2024-03-22T12:54:08;3.80;;;3.50;;
40322;SDS011;26030;51.164;17.100;2024-03-22T12:59:12;4.00;;;3.70;;
40322;SDS011;26030;51.164;17.100;2024-03-22T13:04:17;3.70;;;3.40;;
40322;SDS011;26030;51.164;17.100;2024-03-22T13:09:21;4.20;;;3.70;;
40322;SDS011;26030;51.164;17.100;2024-03-22T13:14:25;4.10;;;3.70;;
40322;SDS011;26030;51.164;17.100;2024-03-22T13:19:29;3.90;;;3.60;;
40322;SDS011;26030;51.164;17.100;2024-03-22T13:24:33;3.90;;;3.60;;
40322;SDS011;26030;51.164;17.100;2024-03-22T13:29:37;4.50;;;4.10;;
40322;SDS011;26030;51.164;17.100;2024-03-22T13:34:41;4.00;;;3.30;;
40322;SDS011;26030;51.164;17.100;2024-03-22T13:39:49;3.60;;;3.40;;
40322;SDS011;26030;51.164;17.100;2024-03-22T13:44:53;4.10;;;3.70;;
40322;SDS011;26030;51.164;17.100;2024-03-22T13:49:56;3.30;;;3.10;;
40322;SDS011;26030;51.164;17.100;2024-03-22T13:55:09;4.10;;;3.80;;
40322;SDS011;26030;51.164;17.100;2024-03-22T14:00:13;4.60;;;3.60;;
40322;SDS011;26030;51.164;17.100;2024-03-22T14:05:18;3.70;;;3.40;;
40322;SDS011;26030;51.164;17.100;2024-03-22T14:10:21;3.60;;;3.30;;
40322;SDS011;26030;51.164;17.100;2024-03-22T14:15:26;3.70;;;3.40;;
40322;SDS011;26030;51.164;17.100;2024-03-22T14:20:30;3.80;;;3.50;;
40322;SDS011;26030;51.164;17.100;2024-03-22T14:25:34;3.60;;;3.30;;
40322;SDS011;26030;51.164;17.100;2024-03-22T14:30:38;3.30;;;3.00;;
40322;SDS011;26030;51.164;17.100;2024-03-22T14:35:42;3.70;;;3.40;;
40322;SDS011;26030;51.164;17.100;2024-03-22T14:40:58;3.50;;;3.20;;
40322;SDS011;26030;51.164;17.100;2024-03-22T14:46:02;3.50;;;3.30;;
40322;SDS011;26030;51.164;17.100;2024-03-22T14:51:06;3.40;;;3.10;;
40322;SDS011;26030;51.164;17.100;2024-03-22T14:56:13;3.30;;;3.10;;
40322;SDS011;26030;51.164;17.100;2024-03-22T15:01:18;2.90;;;2.70;;
40322;SDS011;26030;51.164;17.100;2024-03-22T15:06:22;4.00;;;3.70;;
40322;SDS011;26030;51.164;17.100;2024-03-22T15:11:26;4.00;;;3.70;;
40322;SDS011;26030;51.164;17.100;2024-03-22T15:21:45;3.70;;;3.40;;
40322;SDS011;26030;51.164;17.100;2024-03-22T15:26:49;3.70;;;3.40;;
40322;SDS011;26030;51.164;17.100;2024-03-22T15:31:53;3.40;;;3.20;;
40322;SDS011;26030;51.164;17.100;2024-03-22T15:36:56;3.50;;;3.30;;
40322;SDS011;26030;51.164;17.100;2024-03-22T15:42:00;3.60;;;3.30;;
40322;SDS011;26030;51.164;17.100;2024-03-22T15:47:05;3.80;;;3.50;;
40322;SDS011;26030;51.164;17.100;2024-03-22T15:52:08;3.20;;;3.00;;
40322;SDS011;26030;51.164;17.100;2024-03-22T15:57:15;4.10;;;3.60;;
40322;SDS011;26030;51.164;17.100;2024-03-22T16:02:22;4.10;;;3.80;;
40322;SDS011;26030;51.164;17.100;2024-03-22T16:07:29;5.30;;;3.40;;
40322;SDS011;26030;51.164;17.100;2024-03-22T16:12:33;8.10;;;5.10;;
40322;SDS011;26030;51.164;17.100;2024-03-22T16:17:38;6.90;;;5.60;;
40322;SDS011;26030;51.164;17.100;2024-03-22T16:22:45;6.80;;;5.70;;
40322;SDS011;26030;51.164;17.100;2024-03-22T16:27:52;6.20;;;5.60;;
40322;SDS011;26030;51.164;17.100;2024-03-22T16:32:56;7.30;;;5.40;;
40322;SDS011;26030;51.164;17.100;2024-03-22T16:37:59;8.40;;;6.10;;
40322;SDS011;26030;51.164;17.100;2024-03-22T16:43:03;9.10;;;5.90;;
40322;SDS011;26030;51.164;17.100;2024-03-22T16:48:07;7.60;;;6.00;;
40322;SDS011;26030;51.164;17.100;2024-03-22T16:53:11;6.50;;;5.90;;
40322;SDS011;26030;51.164;17.100;2024-03-22T16:58:15;12.30;;;6.80;;
40322;SDS011;26030;51.164;17.100;2024-03-22T17:03:19;9.30;;;6.60;;
40322;SDS011;26030;51.164;17.100;2024-03-22T17:08:23;11.60;;;6.60;;
40322;SDS011;26030;51.164;17.100;2024-03-22T17:13:26;7.60;;;6.60;;
40322;SDS011;26030;51.164;17.100;2024-03-22T17:18:30;8.10;;;7.20;;
40322;SDS011;26030;51.164;17.100;2024-03-22T17:23:34;8.90;;;6.30;;
40322;SDS011;26030;51.164;17.100;2024-03-22T17:28:38;8.40;;;6.90;;
40322;SDS011;26030;51.164;17.100;2024-03-22T17:33:44;10.40;;;6.10;;
40322;SDS011;26030;51.164;17.100;2024-03-22T17:38:48;7.50;;;5.90;;
40322;SDS011;26030;51.164;17.100;2024-03-22T17:43:52;7.70;;;6.10;;
40322;SDS011;26030;51.164;17.100;2024-03-22T17:48:56;8.20;;;5.70;;
40322;SDS011;26030;51.164;17.100;2024-03-22T17:53:59;13.10;;;5.30;;
40322;SDS011;26030;51.164;17.100;2024-03-22T17:59:03;7.10;;;5.20;;
40322;SDS011;26030;51.164;17.100;2024-03-22T18:04:07;9.80;;;5.20;;
40322;SDS011;26030;51.164;17.100;2024-03-22T18:09:11;8.20;;;5.00;;
40322;SDS011;26030;51.164;17.100;2024-03-22T18:14:15;16.40;;;5.60;;
40322;SDS011;26030;51.164;17.100;2024-03-22T18:19:19;10.60;;;5.30;;
40322;SDS011;26030;51.164;17.100;2024-03-22T18:24:23;11.50;;;5.80;;
40322;SDS011;26030;51.164;17.100;2024-03-22T18:29:27;11.20;;;5.70;;
40322;SDS011;26030;51.164;17.100;2024-03-22T18:34:31;10.40;;;5.60;;
40322;SDS011;26030;51.164;17.100;2024-03-22T18:39:44;9.10;;;5.00;;
40322;SDS011;26030;51.164;17.100;2024-03-22T18:44:48;7.90;;;5.50;;
40322;SDS011;26030;51.164;17.100;2024-03-22T18:49:52;10.30;;;5.70;;
40322;SDS011;26030;51.164;17.100;2024-03-22T18:54:58;12.30;;;6.10;;
40322;SDS011;26030;51.164;17.100;2024-03-22T19:00:03;8.80;;;8.00;;
40322;SDS011;26030;51.164;17.100;2024-03-22T19:05:07;11.70;;;7.80;;
40322;SDS011;26030;51.164;17.100;2024-03-22T19:10:20;16.60;;;13.10;;
40322;SDS011;26030;51.164;17.100;2024-03-22T19:15:24;15.50;;;12.60;;
40322;SDS011;26030;51.164;17.100;2024-03-22T19:20:28;11.80;;;10.50;;
40322;SDS011;26030;51.164;17.100;2024-03-22T19:25:32;11.80;;;10.00;;
40322;SDS011;26030;51.164;17.100;2024-03-22T19:30:37;13.00;;;10.00;;
40322;SDS011;26030;51.164;17.100;2024-03-22T19:35:41;14.50;;;10.60;;
40322;SDS011;26030;51.164;17.100;2024-03-22T19:40:47;21.30;;;9.00;;
40322;SDS011;26030;51.164;17.100;2024-03-22T19:51:11;17.40;;;8.50;;
40322;SDS011;26030;51.164;17.100;2024-03-22T19:56:15;15.20;;;8.50;;
40322;SDS011;26030;51.164;17.100;2024-03-22T20:01:22;11.30;;;8.20;;
40322;SDS011;26030;51.164;17.100;2024-03-22T20:06:26;10.50;;;7.60;;
40322;SDS011;26030;51.164;17.100;2024-03-22T20:11:30;19.80;;;7.80;;
40322;SDS011;26030;51.164;17.100;2024-03-22T20:16:34;11.30;;;8.00;;
40322;SDS011;26030;51.164;17.100;2024-03-22T20:21:38;8.70;;;6.90;;
40322;SDS011;26030;51.164;17.100;2024-03-22T20:26:41;10.70;;;8.00;;
40322;SDS011;26030;51.164;17.100;2024-03-22T20:31:54;12.10;;;6.90;;
